createdAt,value
2022-11-17T00:00:05.089Z,895.68
2022-11-17T00:01:05.029Z,895.89
2022-11-17T00:02:05.088Z,895.27
2022-11-17T00:03:05.097Z,894.44
2022-11-17T00:04:05.039Z,893.56
2022-11-17T00:05:04.986Z,893.61
2022-11-17T00:06:05.008Z,893.54
2022-11-17T00:07:05.016Z,893.17
2022-11-17T00:08:05.027Z,892.73
2022-11-17T00:09:04.935Z,891.69
2022-11-17T00:10:04.939Z,891.87
2022-11-17T00:11:04.927Z,892.31
2022-11-17T00:12:04.899Z,892.91
2022-11-17T00:13:04.919Z,892.10
2022-11-17T00:14:04.909Z,891.29
2022-11-17T00:15:04.857Z,890.97
2022-11-17T00:16:04.857Z,890.36
2022-11-17T00:17:04.850Z,890.07
2022-11-17T00:18:04.821Z,890.91
2022-11-17T00:19:04.810Z,890.99
2022-11-17T00:20:04.816Z,891.59
2022-11-17T00:21:04.797Z,891.74
2022-11-17T00:22:04.771Z,891.70
2022-11-17T00:23:04.838Z,891.79
2022-11-17T00:24:04.750Z,891.78
2022-11-17T00:25:04.753Z,891.36
2022-11-17T00:26:04.757Z,891.10
2022-11-17T00:27:04.734Z,891.18
2022-11-17T00:28:04.709Z,891.04
2022-11-17T00:29:04.711Z,890.09
2022-11-17T00:30:04.701Z,889.00
2022-11-17T00:31:04.684Z,888.01
2022-11-17T00:32:04.681Z,887.57
2022-11-17T00:33:04.672Z,886.93
2022-11-17T00:34:04.654Z,887.32
2022-11-17T00:35:04.662Z,887.14
2022-11-17T00:36:04.618Z,887.38
2022-11-17T00:37:04.633Z,887.21
2022-11-17T00:38:04.601Z,887.73
2022-11-17T00:39:04.603Z,887.62
2022-11-17T00:40:04.581Z,887.43
2022-11-17T00:41:04.571Z,886.97
2022-11-17T00:42:04.591Z,885.89
2022-11-17T00:43:04.572Z,885.08
2022-11-17T00:44:04.574Z,884.95
2022-11-17T00:45:04.511Z,884.60
2022-11-17T00:46:04.536Z,884.65
2022-11-17T00:47:04.483Z,884.32
2022-11-17T00:48:04.481Z,884.46
2022-11-17T00:49:04.463Z,883.96
2022-11-17T00:50:04.453Z,884.11
2022-11-17T00:51:04.475Z,883.93
2022-11-17T00:52:04.528Z,884.66
2022-11-17T00:53:04.464Z,885.02
2022-11-17T00:54:04.476Z,886.09
2022-11-17T00:55:04.455Z,886.51
2022-11-17T00:56:04.396Z,887.13
2022-11-17T00:57:04.432Z,887.82
2022-11-17T00:58:04.377Z,888.30
2022-11-17T00:59:04.353Z,888.81
2022-11-17T01:00:04.348Z,889.17
2022-11-17T01:01:04.387Z,889.90
2022-11-17T01:02:04.355Z,890.60
2022-11-17T01:03:04.318Z,891.54
2022-11-17T01:04:04.584Z,891.28
2022-11-17T01:05:04.281Z,891.86
2022-11-17T01:06:04.291Z,891.62
2022-11-17T01:07:04.332Z,890.39
2022-11-17T01:08:04.267Z,890.04
2022-11-17T01:09:04.245Z,890.04
2022-11-17T01:10:04.236Z,890.55
2022-11-17T01:11:04.207Z,890.67
2022-11-17T01:12:04.245Z,891.29
2022-11-17T01:13:04.207Z,891.51
2022-11-17T01:14:04.218Z,891.83
2022-11-17T01:15:04.188Z,892.26
2022-11-17T01:16:04.178Z,891.88
2022-11-17T01:17:04.145Z,892.61
2022-11-17T01:18:04.139Z,892.70
2022-11-17T01:19:04.125Z,892.00
2022-11-17T01:20:04.123Z,891.68
2022-11-17T01:21:04.140Z,891.73
2022-11-17T01:22:04.090Z,891.88
2022-11-17T01:23:04.068Z,892.63
2022-11-17T01:24:04.843Z,892.84
2022-11-17T01:25:04.059Z,893.27
2022-11-17T01:26:04.057Z,892.88
2022-11-17T01:27:04.042Z,893.11
2022-11-17T01:28:04.009Z,893.01
2022-11-17T01:29:04.000Z,892.33
2022-11-17T01:30:03.989Z,891.53
2022-11-17T01:31:04.001Z,890.75
2022-11-17T01:32:04.000Z,890.26
2022-11-17T01:33:03.967Z,889.93
2022-11-17T01:34:03.939Z,890.27
2022-11-17T01:35:03.984Z,890.08
2022-11-17T01:36:03.919Z,890.06
2022-11-17T01:37:03.929Z,891.27
2022-11-17T01:38:03.914Z,891.84
2022-11-17T01:39:03.899Z,893.78
2022-11-17T01:40:03.870Z,895.25
2022-11-17T01:41:03.900Z,896.44
2022-11-17T01:42:03.872Z,897.12
2022-11-17T01:43:03.855Z,898.09
2022-11-17T01:44:03.861Z,899.74
2022-11-17T01:45:03.847Z,900.21
2022-11-17T01:46:03.839Z,901.17
2022-11-17T01:47:03.813Z,902.63
2022-11-17T01:48:03.787Z,902.56
2022-11-17T01:49:03.782Z,903.13
2022-11-17T01:50:03.783Z,903.14
2022-11-17T01:51:03.761Z,903.35
2022-11-17T01:52:03.762Z,904.06
2022-11-17T01:53:03.730Z,904.29
2022-11-17T01:54:03.727Z,904.17
2022-11-17T01:55:03.702Z,904.04
2022-11-17T01:56:03.707Z,903.82
2022-11-17T01:57:03.711Z,903.97
2022-11-17T01:58:03.674Z,903.66
2022-11-17T01:59:03.663Z,903.97
2022-11-17T02:00:03.661Z,903.38
2022-11-17T02:01:03.654Z,903.55
2022-11-17T02:02:03.704Z,905.50
2022-11-17T02:03:03.614Z,907.56
2022-11-17T02:04:03.629Z,908.94
2022-11-17T02:05:03.603Z,910.09
2022-11-17T02:06:03.611Z,910.51
2022-11-17T02:07:03.655Z,911.56
2022-11-17T02:08:03.563Z,911.79
2022-11-17T02:09:03.545Z,912.10
2022-11-17T02:10:03.545Z,912.43
2022-11-17T02:11:03.534Z,912.90
2022-11-17T02:12:03.515Z,914.34
2022-11-17T02:13:03.544Z,914.40
2022-11-17T02:14:03.475Z,913.86
2022-11-17T02:15:03.483Z,914.00
2022-11-17T02:16:03.463Z,914.67
2022-11-17T02:17:11.486Z,915.81
2022-11-17T02:18:04.436Z,916.98
2022-11-17T02:19:03.434Z,916.83
2022-11-17T02:20:03.418Z,916.06
2022-11-17T02:21:03.455Z,916.72
2022-11-17T02:22:03.406Z,918.43
2022-11-17T02:23:03.379Z,917.71
2022-11-17T02:24:03.375Z,917.75
2022-11-17T02:25:03.356Z,918.51
2022-11-17T02:26:03.365Z,920.28
2022-11-17T02:27:03.377Z,921.02
2022-11-17T02:28:03.347Z,921.63
2022-11-17T02:29:03.305Z,922.10
2022-11-17T02:30:03.335Z,921.40
2022-11-17T02:31:03.296Z,921.41
2022-11-17T02:32:03.305Z,921.53
2022-11-17T02:33:03.308Z,922.33
2022-11-17T02:34:03.249Z,923.33
2022-11-17T02:35:03.246Z,923.52
2022-11-17T02:36:03.259Z,924.04
2022-11-17T02:37:03.515Z,923.62
2022-11-17T02:38:03.228Z,923.53
2022-11-17T02:39:03.206Z,923.93
2022-11-17T02:40:03.192Z,923.30
2022-11-17T02:41:03.189Z,923.14
2022-11-17T02:42:03.167Z,922.80
2022-11-17T02:43:03.165Z,923.30
2022-11-17T02:44:03.146Z,923.90
2022-11-17T02:45:03.138Z,925.13
2022-11-17T02:46:03.137Z,925.15
2022-11-17T02:47:03.130Z,925.26
2022-11-17T02:48:03.096Z,925.67
2022-11-17T02:49:03.084Z,925.63
2022-11-17T02:50:03.121Z,926.03
2022-11-17T02:51:03.061Z,925.97
2022-11-17T02:52:03.060Z,926.91
2022-11-17T02:53:03.041Z,927.06
2022-11-17T02:54:03.022Z,927.73
2022-11-17T02:55:03.039Z,927.12
2022-11-17T02:56:03.027Z,927.65
2022-11-17T02:57:03.004Z,927.96
2022-11-17T02:58:02.968Z,927.99
2022-11-17T02:59:03.004Z,927.94
2022-11-17T03:00:02.965Z,928.01
2022-11-17T03:01:02.950Z,927.64
2022-11-17T03:02:03.078Z,927.33
2022-11-17T03:03:02.918Z,927.68
2022-11-17T03:04:02.910Z,928.07
2022-11-17T03:05:02.891Z,927.78
2022-11-17T03:06:02.881Z,928.56
2022-11-17T03:07:03.073Z,929.13
2022-11-17T03:08:02.866Z,929.55
2022-11-17T03:09:02.844Z,929.99
2022-11-17T03:10:02.834Z,929.99
2022-11-17T03:11:02.856Z,930.67
2022-11-17T03:12:02.847Z,931.02
2022-11-17T03:13:02.839Z,931.62
2022-11-17T03:14:02.800Z,931.68
2022-11-17T03:15:02.782Z,931.16
2022-11-17T03:16:02.821Z,931.51
2022-11-17T03:17:02.768Z,931.17
2022-11-17T03:18:02.774Z,932.40
2022-11-17T03:19:02.746Z,932.37
2022-11-17T03:20:02.729Z,932.37
2022-11-17T03:21:02.712Z,932.81
2022-11-17T03:22:02.713Z,933.37
2022-11-17T03:23:02.689Z,933.33
2022-11-17T03:24:02.670Z,932.67
2022-11-17T03:25:02.695Z,932.17
2022-11-17T03:26:02.654Z,931.21
2022-11-17T03:27:02.640Z,931.60
2022-11-17T03:28:02.653Z,931.54
2022-11-17T03:29:02.619Z,931.30
2022-11-17T03:30:02.646Z,931.59
2022-11-17T03:31:02.590Z,931.26
2022-11-17T03:32:02.591Z,930.09
2022-11-17T03:33:02.594Z,929.70
2022-11-17T03:34:02.560Z,928.78
2022-11-17T03:35:02.552Z,928.41
2022-11-17T03:36:02.552Z,927.78
2022-11-17T03:37:02.523Z,927.03
2022-11-17T03:38:02.525Z,926.56
2022-11-17T03:39:02.524Z,926.71
2022-11-17T03:40:02.502Z,925.75
2022-11-17T03:41:02.477Z,925.60
2022-11-17T03:42:02.493Z,925.09
2022-11-17T03:43:02.481Z,924.50
2022-11-17T03:44:02.443Z,923.91
2022-11-17T03:45:02.458Z,924.03
2022-11-17T03:46:02.420Z,924.30
2022-11-17T03:47:02.422Z,924.11
2022-11-17T03:48:02.402Z,923.60
2022-11-17T03:49:02.393Z,923.34
2022-11-17T03:50:02.376Z,924.05
2022-11-17T03:51:02.404Z,924.81
2022-11-17T03:52:02.366Z,925.22
2022-11-17T03:53:02.374Z,925.31
2022-11-17T03:54:02.335Z,924.84
2022-11-17T03:55:02.317Z,924.81
2022-11-17T03:56:02.307Z,925.07
2022-11-17T03:57:02.314Z,925.39
2022-11-17T03:58:02.296Z,925.91
2022-11-17T03:59:02.296Z,927.24
2022-11-17T04:00:02.294Z,928.39
2022-11-17T04:01:02.264Z,929.37
2022-11-17T04:02:02.319Z,930.31
2022-11-17T04:03:02.253Z,930.96
2022-11-17T04:04:02.218Z,931.81
2022-11-17T04:05:02.249Z,932.32
2022-11-17T04:06:02.198Z,932.68
2022-11-17T04:07:02.224Z,932.86
2022-11-17T04:08:02.215Z,932.82
2022-11-17T04:09:02.165Z,933.28
2022-11-17T04:10:02.149Z,933.28
2022-11-17T04:11:02.154Z,932.34
2022-11-17T04:12:02.262Z,931.73
2022-11-17T04:13:02.133Z,931.10
2022-11-17T04:14:02.128Z,930.82
2022-11-17T04:15:02.099Z,930.35
2022-11-17T04:16:02.097Z,929.83
2022-11-17T04:17:02.086Z,929.58
2022-11-17T04:18:02.083Z,929.29
2022-11-17T04:19:02.075Z,929.37
2022-11-17T04:20:02.094Z,929.04
2022-11-17T04:21:02.019Z,928.93
2022-11-17T04:22:02.037Z,928.66
2022-11-17T04:23:02.008Z,929.01
2022-11-17T04:24:01.995Z,928.99
2022-11-17T04:25:01.996Z,928.53
2022-11-17T04:26:01.971Z,928.49
2022-11-17T04:27:01.969Z,929.17
2022-11-17T04:28:01.966Z,929.29
2022-11-17T04:29:01.950Z,929.57
2022-11-17T04:30:01.940Z,929.43
2022-11-17T04:31:01.951Z,929.52
2022-11-17T04:32:01.917Z,929.20
2022-11-17T04:33:01.898Z,929.38
2022-11-17T04:34:01.903Z,928.77
2022-11-17T04:35:01.888Z,928.64
2022-11-17T04:36:01.881Z,929.81
2022-11-17T04:37:07.985Z,930.47
2022-11-17T04:38:02.862Z,931.08
2022-11-17T04:39:01.819Z,931.61
2022-11-17T04:40:01.858Z,932.20
2022-11-17T04:41:01.810Z,933.36
2022-11-17T04:42:01.803Z,934.41
2022-11-17T04:43:01.792Z,934.61
2022-11-17T04:44:01.779Z,934.74
2022-11-17T04:45:01.759Z,934.51
2022-11-17T04:46:01.740Z,934.70
2022-11-17T04:47:01.741Z,935.59
2022-11-17T04:48:01.739Z,935.97
2022-11-17T04:49:01.742Z,935.86
2022-11-17T04:50:01.700Z,937.03
2022-11-17T04:51:01.691Z,937.48
2022-11-17T04:52:01.699Z,938.27
2022-11-17T04:53:01.671Z,939.54
2022-11-17T04:54:01.690Z,941.50
2022-11-17T04:55:01.649Z,941.82
2022-11-17T04:56:01.635Z,941.51
2022-11-17T04:57:01.671Z,941.35
2022-11-17T04:58:01.604Z,940.50
2022-11-17T04:59:01.616Z,939.41
2022-11-17T05:00:01.619Z,938.76
2022-11-17T05:01:01.592Z,937.76
2022-11-17T05:02:05.885Z,936.51
2022-11-17T05:03:01.569Z,935.58
2022-11-17T05:04:01.550Z,934.77
2022-11-17T05:05:01.550Z,933.89
2022-11-17T05:06:01.515Z,933.40
2022-11-17T05:07:01.612Z,933.42
2022-11-17T05:08:01.502Z,933.09
2022-11-17T05:09:01.532Z,933.12
2022-11-17T05:10:01.474Z,933.74
2022-11-17T05:11:01.507Z,934.08
2022-11-17T05:12:01.453Z,933.65
2022-11-17T05:13:01.435Z,933.35
2022-11-17T05:14:01.463Z,933.80
2022-11-17T05:15:01.428Z,933.97
2022-11-17T05:16:01.403Z,933.77
2022-11-17T05:17:08.441Z,933.37
2022-11-17T05:18:02.386Z,932.64
2022-11-17T05:19:01.504Z,931.92
2022-11-17T05:20:01.366Z,930.31
2022-11-17T05:21:01.344Z,929.34
2022-11-17T05:22:01.360Z,929.01
2022-11-17T05:23:06.560Z,928.87
2022-11-17T05:24:02.316Z,929.02
2022-11-17T05:25:01.336Z,929.11
2022-11-17T05:26:01.294Z,929.62
2022-11-17T05:27:01.286Z,928.91
2022-11-17T05:28:01.276Z,928.35
2022-11-17T05:29:01.286Z,928.75
2022-11-17T05:30:01.256Z,927.97
2022-11-17T05:31:01.235Z,927.87
2022-11-17T05:32:01.244Z,927.38
2022-11-17T05:33:01.232Z,926.33
2022-11-17T05:34:01.212Z,925.69
2022-11-17T05:35:01.187Z,925.01
2022-11-17T05:36:01.216Z,924.10
2022-11-17T05:37:01.199Z,922.86
2022-11-17T05:38:01.180Z,923.02
2022-11-17T05:39:01.168Z,922.84
2022-11-17T05:40:01.202Z,922.64
2022-11-17T05:41:01.151Z,922.11
2022-11-17T05:42:01.110Z,921.29
2022-11-17T05:43:01.117Z,920.84
2022-11-17T05:44:01.089Z,920.64
2022-11-17T05:45:01.085Z,919.61
2022-11-17T05:46:01.104Z,918.75
2022-11-17T05:47:01.056Z,918.23
2022-11-17T05:48:01.039Z,917.32
2022-11-17T05:49:01.078Z,916.17
2022-11-17T05:50:01.010Z,915.28
2022-11-17T05:51:01.024Z,914.05
2022-11-17T05:52:01.016Z,913.65
2022-11-17T05:53:00.999Z,913.25
2022-11-17T05:54:00.969Z,912.35
2022-11-17T05:55:00.977Z,911.90
2022-11-17T05:56:00.951Z,910.89
2022-11-17T05:57:00.990Z,911.05
2022-11-17T05:58:00.930Z,910.72
2022-11-17T05:59:05.068Z,910.86
2022-11-17T06:00:00.971Z,910.76
2022-11-17T06:01:00.890Z,911.15
2022-11-17T06:02:00.885Z,911.01
2022-11-17T06:03:00.891Z,910.10
2022-11-17T06:04:00.910Z,909.58
2022-11-17T06:05:00.880Z,908.58
2022-11-17T06:06:00.842Z,908.00
2022-11-17T06:07:00.914Z,907.34
2022-11-17T06:08:00.812Z,907.28
2022-11-17T06:09:00.841Z,907.38
2022-11-17T06:10:00.830Z,907.40
2022-11-17T06:11:00.782Z,906.91
2022-11-17T06:12:05.503Z,906.76
2022-11-17T06:13:01.766Z,905.75
2022-11-17T06:14:00.755Z,905.61
2022-11-17T06:15:00.733Z,906.11
2022-11-17T06:16:00.794Z,905.98
2022-11-17T06:17:00.710Z,906.09
2022-11-17T06:18:00.701Z,905.51
2022-11-17T06:19:00.720Z,906.36
2022-11-17T06:20:00.947Z,907.39
2022-11-17T06:21:00.667Z,906.99
2022-11-17T06:22:16.069Z,907.18
2022-11-17T06:23:01.644Z,906.96
2022-11-17T06:24:00.651Z,906.24
2022-11-17T06:25:00.635Z,905.75
2022-11-17T06:26:00.630Z,906.60
2022-11-17T06:27:00.618Z,906.50
2022-11-17T06:28:00.575Z,906.84
2022-11-17T06:29:00.572Z,908.06
2022-11-17T06:30:00.557Z,908.46
2022-11-17T06:31:00.542Z,908.81
2022-11-17T06:32:00.555Z,909.24
2022-11-17T06:33:00.546Z,908.59
2022-11-17T06:34:00.536Z,909.14
2022-11-17T06:35:00.536Z,910.05
2022-11-17T06:36:00.485Z,910.11
2022-11-17T06:37:00.489Z,911.34
2022-11-17T06:38:00.486Z,912.38
2022-11-17T06:39:00.456Z,912.82
2022-11-17T06:40:00.475Z,912.42
2022-11-17T06:41:00.415Z,912.83
2022-11-17T06:42:00.425Z,913.07
2022-11-17T06:43:00.444Z,913.98
2022-11-17T06:44:00.396Z,915.28
2022-11-17T06:45:00.405Z,916.29
2022-11-17T06:46:00.381Z,916.52
2022-11-17T06:47:00.453Z,917.20
2022-11-17T06:48:00.344Z,917.37
2022-11-17T06:49:00.349Z,917.39
2022-11-17T06:50:00.348Z,917.94
2022-11-17T06:51:00.320Z,917.89
2022-11-17T06:52:00.353Z,918.45
2022-11-17T06:53:00.299Z,920.16
2022-11-17T06:54:00.299Z,921.89
2022-11-17T06:55:00.268Z,924.43
2022-11-17T06:56:00.317Z,926.41
2022-11-17T06:57:00.296Z,927.37
2022-11-17T06:58:00.230Z,928.15
2022-11-17T06:59:00.229Z,929.87
2022-11-17T07:00:00.246Z,931.76
2022-11-17T07:01:00.234Z,934.41
2022-11-17T07:02:00.186Z,936.47
2022-11-17T07:03:00.215Z,936.75
2022-11-17T07:04:00.159Z,937.41
2022-11-17T07:05:00.165Z,937.97
2022-11-17T07:06:00.183Z,938.84
2022-11-17T07:07:00.231Z,937.86
2022-11-17T07:08:00.148Z,935.33
2022-11-17T07:09:00.118Z,939.37
2022-11-17T07:10:00.098Z,947.13
2022-11-17T07:11:00.212Z,952.45
2022-11-17T07:12:00.072Z,954.92
2022-11-17T07:13:00.072Z,940.79
2022-11-17T07:14:00.051Z,934.63
2022-11-17T07:15:00.055Z,933.71
2022-11-17T07:16:00.050Z,934.31
2022-11-17T07:17:00.021Z,936.52
2022-11-17T07:18:00.011Z,937.61
2022-11-17T07:18:59.998Z,938.38
2022-11-17T07:19:59.992Z,939.73
2022-11-17T07:21:00.914Z,941.27
2022-11-17T07:21:59.979Z,942.12
2022-11-17T07:22:59.964Z,942.50
2022-11-17T07:23:59.962Z,942.17
2022-11-17T07:24:59.926Z,941.58
2022-11-17T07:25:59.926Z,941.31
2022-11-17T07:26:59.984Z,941.29
2022-11-17T07:27:59.899Z,941.68
2022-11-17T07:28:59.871Z,941.65
2022-11-17T07:29:59.901Z,941.62
2022-11-17T07:30:59.893Z,941.87
2022-11-17T07:31:59.840Z,942.02
2022-11-17T07:32:59.840Z,942.89
2022-11-17T07:33:59.913Z,942.95
2022-11-17T07:34:59.805Z,943.72
2022-11-17T07:35:59.806Z,943.52
2022-11-17T07:36:59.820Z,944.02
2022-11-17T07:37:59.792Z,944.82
2022-11-17T07:38:59.776Z,947.30
2022-11-17T07:39:59.744Z,947.72
2022-11-17T07:40:59.777Z,948.14
2022-11-17T07:41:59.734Z,948.72
2022-11-17T07:42:59.713Z,949.43
2022-11-17T07:43:59.762Z,950.65
2022-11-17T07:44:59.695Z,951.64
2022-11-17T07:45:59.712Z,953.00
2022-11-17T07:46:59.714Z,954.73
2022-11-17T07:47:59.673Z,956.69
2022-11-17T07:48:59.662Z,959.33
2022-11-17T07:49:59.643Z,959.66
2022-11-17T07:50:59.658Z,958.95
2022-11-17T07:51:59.624Z,958.43
2022-11-17T07:52:59.605Z,958.87
2022-11-17T07:53:59.609Z,961.33
2022-11-17T07:54:59.594Z,964.88
2022-11-17T07:55:59.587Z,965.05
2022-11-17T07:56:59.586Z,963.72
2022-11-17T07:57:59.545Z,963.76
2022-11-17T07:58:59.560Z,964.15
2022-11-17T07:59:59.535Z,964.99
2022-11-17T08:00:59.567Z,965.97
2022-11-17T08:01:59.515Z,966.14
2022-11-17T08:02:59.496Z,966.51
2022-11-17T08:03:59.564Z,967.54
2022-11-17T08:04:59.477Z,967.83
2022-11-17T08:05:59.486Z,967.71
2022-11-17T08:06:59.539Z,967.95
2022-11-17T08:07:59.447Z,968.84
2022-11-17T08:08:59.436Z,970.75
2022-11-17T08:09:59.407Z,972.99
2022-11-17T08:10:59.421Z,974.86
2022-11-17T08:11:59.416Z,975.55
2022-11-17T08:12:59.443Z,975.58
2022-11-17T08:13:59.367Z,976.84
2022-11-17T08:14:59.375Z,978.64
2022-11-17T08:15:59.378Z,979.44
2022-11-17T08:16:59.387Z,979.52
2022-11-17T08:17:59.370Z,980.50
2022-11-17T08:18:59.318Z,981.10
2022-11-17T08:19:59.327Z,981.15
2022-11-17T08:20:59.312Z,980.86
2022-11-17T08:21:59.364Z,980.96
2022-11-17T08:22:59.278Z,981.45
2022-11-17T08:23:59.275Z,982.29
2022-11-17T08:24:59.259Z,983.28
2022-11-17T08:25:59.253Z,984.14
2022-11-17T08:26:59.231Z,984.54
2022-11-17T08:27:59.202Z,985.25
2022-11-17T08:28:59.237Z,985.41
2022-11-17T08:29:59.178Z,985.77
2022-11-17T08:30:59.185Z,986.38
2022-11-17T08:31:59.168Z,988.16
2022-11-17T08:32:59.154Z,990.25
2022-11-17T08:33:59.151Z,991.82
2022-11-17T08:34:59.139Z,992.94
2022-11-17T08:35:59.123Z,993.52
2022-11-17T08:36:59.129Z,994.28
2022-11-17T08:37:59.121Z,994.56
2022-11-17T08:38:59.079Z,993.96
2022-11-17T08:39:59.072Z,993.23
2022-11-17T08:40:59.061Z,992.48
2022-11-17T08:41:59.075Z,992.12
2022-11-17T08:43:01.274Z,990.69
2022-11-17T08:43:59.030Z,990.38
2022-11-17T08:44:59.010Z,989.37
2022-11-17T08:45:59.000Z,990.25
2022-11-17T08:46:59.003Z,990.12
2022-11-17T08:47:58.992Z,989.86
2022-11-17T08:48:58.989Z,989.74
2022-11-17T08:49:58.961Z,989.16
2022-11-17T08:50:58.946Z,988.36
2022-11-17T08:51:58.948Z,988.10
2022-11-17T08:52:58.914Z,987.48
2022-11-17T08:53:58.935Z,985.45
2022-11-17T08:54:58.968Z,983.70
2022-11-17T08:55:58.946Z,983.59
2022-11-17T08:56:58.956Z,983.13
2022-11-17T08:57:58.883Z,983.09
2022-11-17T08:58:58.856Z,982.74
2022-11-17T08:59:58.842Z,983.47
2022-11-17T09:01:04.964Z,983.83
2022-11-17T09:01:59.863Z,982.54
2022-11-17T09:02:58.811Z,981.96
2022-11-17T09:03:58.782Z,981.17
2022-11-17T09:04:58.812Z,979.09
2022-11-17T09:05:58.788Z,976.78
2022-11-17T09:06:58.818Z,976.97
2022-11-17T09:08:10.680Z,977.69
2022-11-17T09:09:00.192Z,977.39
2022-11-17T09:09:58.742Z,976.44
2022-11-17T09:10:58.718Z,973.12
2022-11-17T09:11:58.713Z,971.63
2022-11-17T09:12:58.684Z,971.48
2022-11-17T09:13:58.685Z,972.39
2022-11-17T09:14:58.675Z,972.21
2022-11-17T09:15:58.655Z,972.21
2022-11-17T09:16:58.679Z,972.19
2022-11-17T09:17:58.664Z,972.16
2022-11-17T09:18:58.637Z,972.85
2022-11-17T09:19:58.604Z,972.99
2022-11-17T09:20:58.597Z,971.35
2022-11-17T09:21:58.624Z,970.12
2022-11-17T09:22:58.586Z,970.97
2022-11-17T09:23:58.580Z,972.96
2022-11-17T09:24:58.563Z,976.59
2022-11-17T09:25:58.594Z,981.96
2022-11-17T09:26:58.572Z,986.25
2022-11-17T09:27:58.559Z,991.18
2022-11-17T09:28:58.551Z,995.83
2022-11-17T09:29:58.508Z,999.44
2022-11-17T09:31:00.346Z,1002.16
2022-11-17T09:31:58.469Z,1004.06
2022-11-17T09:32:58.495Z,1004.93
2022-11-17T09:34:02.210Z,1005.12
2022-11-17T09:34:59.440Z,1004.50
2022-11-17T09:35:58.469Z,1002.33
2022-11-17T09:36:58.416Z,1000.51
2022-11-17T09:37:58.435Z,997.56
2022-11-17T09:38:58.401Z,994.28
2022-11-17T09:39:58.393Z,990.49
2022-11-17T09:40:58.375Z,985.94
2022-11-17T09:41:58.380Z,981.43
2022-11-17T09:42:58.356Z,979.64
2022-11-17T09:43:58.328Z,986.67
2022-11-17T09:44:58.372Z,994.58
2022-11-17T09:46:01.844Z,996.54
2022-11-17T09:46:59.318Z,994.54
2022-11-17T09:48:12.425Z,989.25
2022-11-17T09:48:59.295Z,984.41
2022-11-17T09:49:59.219Z,983.04
2022-11-17T09:50:58.262Z,980.75
2022-11-17T09:51:58.279Z,976.61
2022-11-17T09:52:58.260Z,974.14
2022-11-17T09:53:58.234Z,971.40
2022-11-17T09:54:58.215Z,963.43
2022-11-17T09:55:58.207Z,956.84
2022-11-17T09:56:58.219Z,953.57
2022-11-17T09:57:58.203Z,950.26
2022-11-17T09:58:58.203Z,947.57
2022-11-17T09:59:58.164Z,943.21
2022-11-17T10:00:58.158Z,942.58
2022-11-17T10:01:58.214Z,946.48
2022-11-17T10:02:58.128Z,956.65
2022-11-17T10:03:58.210Z,973.82
2022-11-17T10:04:58.121Z,990.76
2022-11-17T10:05:58.081Z,1001.12
2022-11-17T10:06:58.113Z,1005.90
2022-11-17T10:07:58.095Z,1007.84
2022-11-17T10:08:58.043Z,1008.39
2022-11-17T10:09:58.055Z,1009.39
2022-11-17T10:10:58.181Z,1011.48
2022-11-17T10:11:58.051Z,1012.21
2022-11-17T10:12:58.104Z,1012.80
2022-11-17T10:13:57.994Z,1012.06
2022-11-17T10:14:58.004Z,1011.24
2022-11-17T10:15:57.974Z,1010.09
2022-11-17T10:16:57.976Z,1008.63
2022-11-17T10:17:58.002Z,1007.48
2022-11-17T10:18:57.952Z,1005.91
2022-11-17T10:19:58.129Z,1004.58
2022-11-17T10:20:57.964Z,1002.42
2022-11-17T10:21:57.922Z,999.24
2022-11-17T10:22:57.958Z,996.81
2022-11-17T10:23:57.878Z,994.85
2022-11-17T10:24:57.922Z,995.13
2022-11-17T10:25:58.103Z,996.54
2022-11-17T10:26:57.870Z,996.34
2022-11-17T10:27:57.863Z,995.50
2022-11-17T10:28:57.853Z,993.95
2022-11-17T10:29:57.896Z,990.63
2022-11-17T10:30:57.818Z,985.33
2022-11-17T10:31:57.840Z,979.40
2022-11-17T10:32:57.896Z,973.78
2022-11-17T10:33:57.823Z,970.04
2022-11-17T10:34:57.770Z,968.45
2022-11-17T10:35:57.754Z,966.17
2022-11-17T10:36:57.801Z,961.29
2022-11-17T10:37:57.767Z,956.68
2022-11-17T10:38:57.735Z,954.90
2022-11-17T10:39:57.707Z,957.67
2022-11-17T10:40:57.728Z,961.81
2022-11-17T10:41:57.721Z,964.27
2022-11-17T10:42:57.813Z,963.83
2022-11-17T10:43:57.678Z,962.62
2022-11-17T10:44:57.679Z,963.72
2022-11-17T10:45:57.676Z,967.17
2022-11-17T10:47:01.931Z,973.86
2022-11-17T10:47:58.668Z,981.23
2022-11-17T10:48:57.613Z,986.24
2022-11-17T10:49:57.619Z,987.82
2022-11-17T10:50:57.599Z,989.25
2022-11-17T10:51:57.580Z,990.98
2022-11-17T10:52:57.589Z,991.65
2022-11-17T10:53:57.560Z,992.23
2022-11-17T10:54:57.578Z,993.56
2022-11-17T10:55:57.563Z,992.92
2022-11-17T10:56:57.513Z,991.89
2022-11-17T10:57:57.563Z,991.61
2022-11-17T10:58:57.500Z,993.98
2022-11-17T10:59:57.936Z,993.80
2022-11-17T11:00:57.560Z,991.20
2022-11-17T11:01:57.486Z,987.89
2022-11-17T11:02:57.508Z,981.61
2022-11-17T11:03:57.467Z,973.73
2022-11-17T11:04:57.545Z,966.62
2022-11-17T11:05:57.451Z,967.32
2022-11-17T11:06:57.476Z,975.37
2022-11-17T11:07:57.448Z,977.33
2022-11-17T11:08:57.410Z,977.80
2022-11-17T11:09:57.800Z,976.98
2022-11-17T11:10:57.425Z,973.37
2022-11-17T11:11:57.372Z,969.23
2022-11-17T11:12:57.360Z,969.22
2022-11-17T11:13:57.352Z,972.41
2022-11-17T11:14:57.353Z,978.34
2022-11-17T11:15:57.344Z,981.63
2022-11-17T11:16:57.321Z,984.10
2022-11-17T11:17:57.299Z,985.21
2022-11-17T11:18:57.322Z,986.27
2022-11-17T11:19:57.265Z,987.25
2022-11-17T11:20:57.274Z,986.96
2022-11-17T11:21:57.245Z,986.27
2022-11-17T11:22:57.296Z,985.62
2022-11-17T11:23:57.225Z,986.65
2022-11-17T11:24:57.245Z,985.78
2022-11-17T11:25:57.224Z,983.66
2022-11-17T11:26:57.206Z,984.36
2022-11-17T11:27:57.210Z,985.59
2022-11-17T11:28:57.174Z,983.77
2022-11-17T11:29:57.166Z,980.18
2022-11-17T11:30:57.178Z,979.18
2022-11-17T11:31:57.136Z,982.92
2022-11-17T11:32:57.137Z,989.42
2022-11-17T11:33:57.138Z,994.43
2022-11-17T11:34:57.105Z,998.08
2022-11-17T11:35:57.138Z,997.37
2022-11-17T11:36:57.093Z,995.39
2022-11-17T11:37:57.124Z,992.24
2022-11-17T11:38:57.097Z,987.79
2022-11-17T11:39:57.047Z,983.36
2022-11-17T11:40:57.076Z,977.97
2022-11-17T11:41:57.026Z,972.69
2022-11-17T11:42:57.040Z,965.78
2022-11-17T11:43:57.006Z,961.92
2022-11-17T11:44:56.998Z,961.39
2022-11-17T11:45:57.286Z,963.03
2022-11-17T11:46:57.005Z,962.09
2022-11-17T11:47:56.967Z,963.13
2022-11-17T11:48:56.956Z,964.10
2022-11-17T11:49:56.939Z,964.80
2022-11-17T11:50:56.959Z,968.54
2022-11-17T11:51:56.909Z,973.67
2022-11-17T11:52:56.915Z,977.92
2022-11-17T11:53:56.900Z,979.75
2022-11-17T11:54:56.919Z,980.21
2022-11-17T11:55:56.871Z,980.83
2022-11-17T11:56:56.856Z,981.14
2022-11-17T11:57:56.875Z,981.44
2022-11-17T11:58:56.851Z,982.14
2022-11-17T12:00:02.470Z,982.44
2022-11-17T12:00:57.827Z,982.28
2022-11-17T12:01:56.858Z,982.63
2022-11-17T12:02:56.862Z,983.69
2022-11-17T12:03:56.784Z,985.01
2022-11-17T12:04:56.770Z,986.45
2022-11-17T12:05:56.758Z,988.23
2022-11-17T12:06:56.821Z,986.70
2022-11-17T12:07:56.740Z,983.84
2022-11-17T12:08:56.732Z,978.84
2022-11-17T12:09:56.728Z,971.29
2022-11-17T12:10:56.721Z,961.20
2022-11-17T12:11:56.718Z,950.90
2022-11-17T12:12:56.663Z,944.00
2022-11-17T12:13:56.683Z,948.67
2022-11-17T12:14:56.650Z,961.20
2022-11-17T12:15:56.655Z,968.34
2022-11-17T12:16:56.659Z,971.86
2022-11-17T12:17:56.612Z,978.53
2022-11-17T12:18:56.599Z,983.37
2022-11-17T12:19:56.600Z,984.57
2022-11-17T12:20:56.615Z,982.84
2022-11-17T12:21:56.604Z,982.36
2022-11-17T12:22:56.574Z,983.77
2022-11-17T12:23:56.552Z,985.05
2022-11-17T12:24:56.534Z,979.44
2022-11-17T12:25:56.566Z,972.31
2022-11-17T12:26:56.495Z,963.30